Flight Track Log - Related Links

Times and Time Zones

All times are in EDT time to prevent confusion due to time zone crossing. See the SGB252 flight status page for this flight to view local times or setup timezone preferences in your user account.

Time Position Orientation Groundspeed Altitude Reporting Facility
EDT Latitude Longitude Course Direction KTS MPH feet Rate Location/Type
Mon 01:14:08 PM 25.7920 -80.2930 271° West 21 24  Level FlightAware ADS-B
Mon 01:14:22 PM 25.7920 -80.2940 270° West 20 23 116 Level FlightAware ADS-B
Mon 01:14:38 PM 25.7920 -80.2950 270° West 19 22 120 Level FlightAware ADS-B
Mon 01:14:50 PM 25.7930 -80.2950 360° North 24 28 125 Level FlightAware ADS-B
Mon 01:15:02 PM 25.7930 -80.2960 270° West 32 37 129 Level FlightAware ADS-B
Mon 01:15:30 PM 25.7940 -80.2980 299° West 18 21 133 Level FlightAware ADS-B
Mon 01:15:58 PM 25.7950 -80.3000 299° West 18 21 144 Level FlightAware ADS-B
Mon 01:16:23 PM 25.7960 -80.3020 299° West 18 21 157 Level FlightAware ADS-B
Mon 01:16:46 PM 25.7970 -80.3040 299° West 29 33 171 Level FlightAware ADS-B
Mon 01:17:20 PM 25.7980 -80.3050 318° Northwest 21 24 187 Level FlightAware ADS-B
Mon 01:17:34 PM 25.7980 -80.3060 270° West 23 26 215 Level FlightAware ADS-B
Mon 01:19:22 PM 25.7980 -80.3070 270° West 24 28 230 Level FlightAware ADS-B
Mon 01:20:02 PM 25.7980 -80.3060 90° East 18 21 475 Level FlightAware ADS-B
Mon 01:21:03 PM 25.8000 -80.2660 87° East 173 199 800 1,026 Climbing FlightAware ADS-B
Mon 01:21:18 PM 25.7960 -80.2520 108° East 187 215 1,300 1,773 Climbing FlightAware ADS-B
Mon 01:21:47 PM 25.7830 -80.2250 118° Southeast 225 259 2,100 2,353 Climbing FlightAware ADS-B
Mon 01:22:09 PM 25.7720 -80.2030 119° Southeast 222 255 3,300 2,556 Climbing FlightAware ADS-B
Mon 01:22:41 PM 25.7550 -80.1680 118° Southeast 256 295 4,400 2,250 Climbing FlightAware ADS-B
Mon 01:22:57 PM 25.7440 -80.1510 126° Southeast 266 306 5,100 2,571 Climbing FlightAware ADS-B
Mon 01:23:09 PM 25.7320 -80.1420 146° Southeast 274 315 5,600 2,786 Climbing FlightAware ADS-B
Mon 01:23:25 PM 25.7110 -80.1390 173° South 283 326 6,400 3,000 Climbing FlightAware ADS-B
Mon 01:23:49 PM 25.6800 -80.1410 183° South 287 330 7,600 3,150 Climbing FlightAware ADS-B
Mon 01:24:05 PM 25.6590 -80.1480 197° South 288 331 8,500 3,429 Climbing FlightAware ADS-B
Mon 01:24:17 PM 25.6440 -80.1560 206° Southwest 287 330 9,200 2,538 Climbing FlightAware ADS-B
Mon 01:24:57 PM 25.5950 -80.1830 206° Southwest 310 357 10,700 1,630 Climbing FlightAware ADS-B
Mon 01:25:38 PM 25.5370 -80.2150 206° Southwest 362 417 11,400 1,364 Climbing FlightAware ADS-B
Mon 01:26:25 PM 25.4650 -80.2540 206° Southwest 392 451 12,700 2,022 Climbing FlightAware ADS-B
Mon 01:27:07 PM 25.3970 -80.2930 207° Southwest 399 459 14,400 2,338 Climbing FlightAware ADS-B
Mon 01:27:42 PM 25.3380 -80.3240 205° Southwest 405 466 15,700 2,053 Climbing FlightAware ADS-B
Mon 01:28:23 PM 25.2670 -80.3620 206° Southwest 411 473 17,000 1,926 Climbing FlightAware ADS-B
Mon 01:29:03 PM 25.2150 -80.4260 228° Southwest 427 491 18,300 1,926 Climbing FlightAware ADS-B
Mon 01:29:44 PM 25.1720 -80.5000 237° Southwest 434 499 19,600 1,884 Climbing FlightAware ADS-B
Mon 01:30:29 PM 25.1190 -80.5860 236° Southwest 439 505 21,000 1,674 Climbing FlightAware ADS-B
Mon 01:31:10 PM 25.0750 -80.6630 238° Southwest 442 509 22,000 682 Climbing FlightAware ADS-B
Mon 01:31:57 PM 25.0230 -80.7490 236° Southwest 430 495 22,000  Level FlightAware ADS-B
Mon 01:32:37 PM 24.9800 -80.8240 238° Southwest 423 487 22,000  Level FlightAware ADS-B
Mon 01:33:13 PM 24.9410 -80.8910 237° Southwest 425 489 22,000  Level FlightAware ADS-B
Mon 01:33:56 PM 24.8960 -80.9680 237° Southwest 424 488 22,000  Level FlightAware ADS-B
Mon 01:34:43 PM 24.8470 -81.0500 237° Southwest 425 489 22,000  Level FlightAware ADS-B
Mon 01:35:23 PM 24.8070 -81.1190 237° Southwest 425 489 22,000  Level FlightAware ADS-B
Mon 01:36:02 PM 24.7620 -81.1970 238° Southwest 423 487 22,000  Level FlightAware ADS-B
Mon 01:36:36 PM 24.7290 -81.2540 237° Southwest 422 486 22,000  Level FlightAware ADS-B
Mon 01:37:25 PM 24.6810 -81.3370 238° Southwest 423 487 22,000  Level FlightAware ADS-B
Mon 01:38:02 PM 24.6400 -81.4060 237° Southwest 423 487 22,000  Level FlightAware ADS-B
Mon 01:38:39 PM 24.5980 -81.4790 238° Southwest 423 487 22,000  Level FlightAware ADS-B
Mon 01:39:20 PM 24.5540 -81.5540 237° Southwest 424 488 22,000  Level FlightAware ADS-B
Mon 01:40:06 PM 24.5040 -81.6380 237° Southwest 425 489 22,000  Level FlightAware ADS-B
Mon 01:40:46 PM 24.4610 -81.7110 237° Southwest 425 489 22,000  Level FlightAware ADS-B
Mon 01:41:11 PM 24.4390 -81.7500 238° Southwest 422 486 22,000  Level FlightAware ADS-B
Mon 01:42:06 PM 24.3670 -81.8490 231° Southwest 429 494 22,000  Level FlightAware ADS-B
Mon 01:42:51 PM 24.3070 -81.9160 226° Southwest 424 488 22,000  Level FlightAware ADS-B
Mon 01:43:36 PM 24.2670 -82.0020 243° Southwest 422 486 22,000  Level FlightAware ADS-B
Mon 01:44:11 PM 24.2370 -82.0650 242° Southwest 427 491 22,000  Level FlightAware ADS-B
Mon 01:44:58 PM 24.1970 -82.1420 240° Southwest 423 487 22,000  Level FlightAware ADS-B
Mon 01:45:34 PM 24.1690 -82.2000 242° Southwest 423 487 22,000  Level FlightAware ADS-B
Mon 01:46:22 PM 24.1320 -82.2780 243° Southwest 423 487 22,000  Level FlightAware ADS-B
Mon 01:46:59 PM 24.1030 -82.3370 242° Southwest 423 487 22,000  Level FlightAware ADS-B
Mon 01:47:47 PM 24.0650 -82.4140 242° Southwest 423 487 22,000  Level FlightAware ADS-B
Mon 01:56:00 PM 23.2916 -82.4105 180° South  Level Estimated
Mon 01:57:00 PM 23.1975 -82.4100 180° South  Level Estimated
Mon 01:58:00 PM 23.1033 -82.4096 180° South  Level Estimated
Mon 01:59:00 PM 23.0092 -82.4092 180° South  Level Estimated
Mon 02:00:00 PM 22.9891 -82.4091 180° South  Level Estimated
Mon 02:01:00 PM 22.9891 -82.4091 51° Northeast  Level Estimated
Mon 02:02:00 PM 22.9891 -82.4091 51° Northeast  Level Estimated
Mon 02:03:00 PM 22.9891 -82.4091 51° Northeast  Level Estimated
Mon 02:04:00 PM 22.9891 -82.4091 51° Northeast  Level Estimated
Mon 02:05:00 PM 22.9891 -82.4091 51° Northeast  Level Estimated
Mon 02:06:00 PM 22.9891 -82.4091 51° Northeast  Level Estimated
Mon 02:07:00 PM 22.9891 -82.4091 51° Northeast  Level Estimated
Mon 02:08:00 PM 22.9891 -82.4091 51° Northeast  Level Estimated
Mon 02:09:00 PM 22.9891 -82.4091 51° Northeast  Level Estimated
Mon 02:10:00 PM 22.9891 -82.4091 51° Northeast  Level Estimated
Mon 02:11:00 PM 22.9891 -82.4091 51° Northeast  Level Estimated
Mon 02:12:00 PM 22.9891 -82.4091 51° Northeast  Level Estimated
Mon 02:13:00 PM 22.9891 -82.4091 51° Northeast  Level Estimated
Mon 02:14:00 PM 22.9891 -82.4091 51° Northeast  Level Estimated
Mon 02:15:00 PM 22.9891 -82.4091 51° Northeast  Level Estimated

Login

Don't have an account? Register now (free) for customized features, flight alerts, and more!